Time;durP1;ratioP1;P1;durP2;ratioP2;P2;SDS_P1;SDS_P2;PMS_P1;PMS_P2;Temp;Humidity;BMP_temperature;BMP_pressure;BME280_temperature;BME280_humidity;BME280_pressure;Samples;Min_cycle;Max_cycle;Signal;HPM_P1;HPM_P2
2024/04/04 00:02:05;;;;;;;0.50;0.40;;;;;;;;;;5040925;28;20038;-52
2024/04/04 00:04:31;;;;;;;0.22;0.22;;;;;;;;;;5025586;28;20033;-52
2024/04/04 00:06:57;;;;;;;0.30;0.30;;;;;;;;;;5025015;28;20033;-56
2024/04/04 00:09:23;;;;;;;0.30;0.30;;;;;;;;;;5024069;28;20045;-53
2024/04/04 00:11:50;;;;;;;0.20;0.20;;;;;;;;;;5008289;28;20030;-55
2024/04/04 00:14:16;;;;;;;0.47;0.40;;;;;;;;;;5025913;28;20119;-51
2024/04/04 00:16:42;;;;;;;0.60;0.40;;;;;;;;;;5023603;28;20053;-54
2024/04/04 00:19:08;;;;;;;0.55;0.30;;;;;;;;;;5026082;28;20034;-50
2024/04/04 00:21:34;;;;;;;0.77;0.35;;;;;;;;;;5028013;28;20041;-49
2024/04/04 00:24:00;;;;;;;0.90;0.30;;;;;;;;;;5029388;28;20424;-49
2024/04/04 00:26:26;;;;;;;0.75;0.40;;;;;;;;;;5027555;28;20128;-50
2024/04/04 00:28:51;;;;;;;0.45;0.38;;;;;;;;;;5028085;28;20052;-53
2024/04/04 00:31:18;;;;;;;0.65;0.40;;;;;;;;;;5011687;28;20091;-49
2024/04/04 00:33:44;;;;;;;0.60;0.60;;;;;;;;;;5028261;28;20037;-49
2024/04/04 00:36:10;;;;;;;0.32;0.30;;;;;;;;;;5027450;28;20065;-51
2024/04/04 00:38:36;;;;;;;0.30;0.22;;;;;;;;;;5027557;28;20179;-48
2024/04/04 00:41:02;;;;;;;0.20;0.15;;;;;;;;;;5027261;28;20040;-49
2024/04/04 00:43:27;;;;;;;0.40;0.30;;;;;;;;;;5028532;28;20401;-49
2024/04/04 00:45:53;;;;;;;0.20;0.20;;;;;;;;;;5027055;28;20041;-49
2024/04/04 00:48:19;;;;;;;0.82;0.38;;;;;;;;;;5027607;28;20630;-52
2024/04/04 00:50:45;;;;;;;0.40;0.30;;;;;;;;;;5027777;28;20456;-49
2024/04/04 00:53:11;;;;;;;0.68;0.40;;;;;;;;;;5029106;28;20044;-53
2024/04/04 00:55:36;;;;;;;2.70;0.40;;;;;;;;;;5029008;28;20051;-50
2024/04/04 00:58:03;;;;;;;0.68;0.30;;;;;;;;;;5042317;28;20088;-49
2024/04/04 01:00:29;;;;;;;0.38;0.32;;;;;;;;;;5038993;28;20041;-51
2024/04/04 01:02:55;;;;;;;0.75;0.30;;;;;;;;;;5027810;28;20422;-51
2024/04/04 01:05:21;;;;;;;0.35;0.35;;;;;;;;;;5026832;28;20114;-48
2024/04/04 01:07:47;;;;;;;2.58;0.20;;;;;;;;;;5027726;28;20034;-50
2024/04/04 01:10:13;;;;;;;0.32;0.30;;;;;;;;;;5028393;28;20061;-50
2024/04/04 01:12:39;;;;;;;0.32;0.30;;;;;;;;;;5043548;28;20033;-53
2024/04/04 01:15:05;;;;;;;0.57;0.30;;;;;;;;;;5028416;28;20365;-50
2024/04/04 01:17:32;;;;;;;0.68;0.50;;;;;;;;;;5027950;28;20127;-50
2024/04/04 01:19:57;;;;;;;0.10;0.10;;;;;;;;;;5026656;28;20029;-49
2024/04/04 01:22:23;;;;;;;0.40;0.28;;;;;;;;;;5028031;28;20033;-50
2024/04/04 01:24:49;;;;;;;0.20;0.20;;;;;;;;;;5038726;28;20049;-57
2024/04/04 01:27:15;;;;;;;0.20;0.20;;;;;;;;;;5027443;28;20047;-54
2024/04/04 01:29:40;;;;;;;0.20;0.20;;;;;;;;;;5026227;28;20084;-52
2024/04/04 01:32:06;;;;;;;0.45;0.25;;;;;;;;;;5026856;28;20369;-50
2024/04/04 01:34:32;;;;;;;0.85;0.30;;;;;;;;;;5026867;28;20034;-50
2024/04/04 01:36:58;;;;;;;0.30;0.28;;;;;;;;;;5028088;28;20068;-50
2024/04/04 01:39:23;;;;;;;0.30;0.30;;;;;;;;;;5027639;28;20029;-52
2024/04/04 01:41:49;;;;;;;0.28;0.20;;;;;;;;;;5043205;28;20120;-52
2024/04/04 01:44:14;;;;;;;0.50;0.32;;;;;;;;;;5027901;28;20042;-51
2024/04/04 01:46:40;;;;;;;1.52;0.30;;;;;;;;;;5028153;28;20041;-49
2024/04/04 01:49:06;;;;;;;0.20;0.20;;;;;;;;;;5027806;28;20053;-51
2024/04/04 01:51:32;;;;;;;0.40;0.20;;;;;;;;;;5026872;28;20033;-53
2024/04/04 01:53:59;;;;;;;0.60;0.38;;;;;;;;;;5026420;28;20488;-50
2024/04/04 01:56:25;;;;;;;0.47;0.25;;;;;;;;;;5027969;28;20079;-51
2024/04/04 01:58:50;;;;;;;0.95;0.40;;;;;;;;;;5040210;28;20033;-50
2024/04/04 02:01:17;;;;;;;0.20;0.20;;;;;;;;;;5027078;28;20053;-51
2024/04/04 02:03:42;;;;;;;0.40;0.30;;;;;;;;;;5026072;28;20033;-49
2024/04/04 02:06:08;;;;;;;0.43;0.22;;;;;;;;;;5025791;28;20037;-48
2024/04/04 02:08:34;;;;;;;1.55;0.20;;;;;;;;;;5027127;28;20037;-55
2024/04/04 02:10:59;;;;;;;0.70;0.50;;;;;;;;;;5026318;28;20099;-51
2024/04/04 02:13:28;;;;;;;0.70;0.45;;;;;;;;;;5027140;28;20034;-48
2024/04/04 02:15:54;;;;;;;2.65;0.40;;;;;;;;;;5025597;28;20476;-50
2024/04/04 02:18:20;;;;;;;1.10;0.50;;;;;;;;;;5041930;28;20509;-47
2024/04/04 02:20:46;;;;;;;1.10;0.70;;;;;;;;;;5029220;28;20045;-54
2024/04/04 02:23:12;;;;;;;1.63;0.57;;;;;;;;;;5026917;28;20071;-52
2024/04/04 02:25:38;;;;;;;0.57;0.38;;;;;;;;;;5026494;28;20374;-52
2024/04/04 02:28:04;;;;;;;1.67;0.80;;;;;;;;;;5025732;28;20049;-52
2024/04/04 02:30:30;;;;;;;1.75;0.40;;;;;;;;;;5007300;28;20116;-52
2024/04/04 02:32:56;;;;;;;0.75;0.30;;;;;;;;;;5024145;28;20531;-54
2024/04/04 02:35:23;;;;;;;0.98;0.70;;;;;;;;;;5026761;28;20029;-51
2024/04/04 02:37:50;;;;;;;0.60;0.40;;;;;;;;;;5042360;28;20043;-52
2024/04/04 02:40:16;;;;;;;0.68;0.40;;;;;;;;;;5025521;28;20034;-50
2024/04/04 02:42:44;;;;;;;2.83;0.40;;;;;;;;;;5026540;28;20128;-50
2024/04/04 02:45:10;;;;;;;0.77;0.60;;;;;;;;;;5025372;28;20018;-53
2024/04/04 02:47:36;;;;;;;0.40;0.20;;;;;;;;;;5025161;28;20041;-50
2024/04/04 02:50:03;;;;;;;0.60;0.50;;;;;;;;;;5025092;28;20044;-51
2024/04/04 02:52:31;;;;;;;0.40;0.40;;;;;;;;;;5026929;28;20147;-55
2024/04/04 02:54:57;;;;;;;0.70;0.47;;;;;;;;;;5041828;28;20611;-50
2024/04/04 02:57:23;;;;;;;0.57;0.35;;;;;;;;;;5025412;28;20033;-51
2024/04/04 02:59:49;;;;;;;0.50;0.50;;;;;;;;;;5041745;28;20042;-56
2024/04/04 03:02:14;;;;;;;0.60;0.60;;;;;;;;;;5027304;28;20030;-49
2024/04/04 03:04:40;;;;;;;2.85;0.57;;;;;;;;;;5024788;28;20037;-51
2024/04/04 03:07:06;;;;;;;0.70;0.30;;;;;;;;;;5024773;28;20592;-52
2024/04/04 03:09:32;;;;;;;0.32;0.30;;;;;;;;;;5026294;28;20174;-53
2024/04/04 03:11:57;;;;;;;2.35;0.45;;;;;;;;;;5025603;28;20025;-51
2024/04/04 03:14:23;;;;;;;0.30;0.30;;;;;;;;;;5025861;28;20041;-54
2024/04/04 03:16:49;;;;;;;0.65;0.40;;;;;;;;;;5026288;28;20492;-48
2024/04/04 03:19:14;;;;;;;0.40;0.25;;;;;;;;;;5025174;28;20041;-51
2024/04/04 03:21:40;;;;;;;1.30;0.55;;;;;;;;;;5025874;28;20106;-53
2024/04/04 03:24:07;;;;;;;0.88;0.30;;;;;;;;;;5024712;28;20045;-49
2024/04/04 03:26:32;;;;;;;0.35;0.35;;;;;;;;;;5026361;28;20124;-49
2024/04/04 03:29:00;;;;;;;0.30;0.28;;;;;;;;;;5025938;28;20075;-51
2024/04/04 03:31:25;;;;;;;0.47;0.38;;;;;;;;;;5007922;28;20029;-51
2024/04/04 03:33:51;;;;;;;0.55;0.38;;;;;;;;;;5041199;28;20571;-49
2024/04/04 03:36:16;;;;;;;0.75;0.20;;;;;;;;;;5025615;28;20132;-48
2024/04/04 03:38:42;;;;;;;0.52;0.32;;;;;;;;;;5041388;28;20401;-52
2024/04/04 03:41:08;;;;;;;0.68;0.40;;;;;;;;;;5026100;28;20136;-52
2024/04/04 03:43:34;;;;;;;0.30;0.30;;;;;;;;;;5010706;28;20029;-50
2024/04/04 03:46:04;;;;;;;0.30;0.30;;;;;;;;;;5025914;28;20044;-52
2024/04/04 03:48:30;;;;;;;0.85;0.50;;;;;;;;;;5025809;28;20175;-49
2024/04/04 03:50:57;;;;;;;1.67;0.70;;;;;;;;;;5024458;28;20852;-53
2024/04/04 03:53:23;;;;;;;0.70;0.50;;;;;;;;;;5024583;28;20036;-50
2024/04/04 03:55:48;;;;;;;0.30;0.30;;;;;;;;;;5028354;28;20132;-50
2024/04/04 03:58:25;;;;;;;0.75;0.55;;;;;;;;;;5042950;28;20444;-51
2024/04/04 04:00:51;;;;;;;4.75;0.50;;;;;;;;;;5029155;28;20052;-53
2024/04/04 04:03:18;;;;;;;0.60;0.40;;;;;;;;;;5028518;28;20063;-54
2024/04/04 04:05:45;;;;;;;1.08;0.30;;;;;;;;;;5029211;28;20101;-52
2024/04/04 04:08:11;;;;;;;0.40;0.38;;;;;;;;;;5028778;28;20048;-50
2024/04/04 04:10:37;;;;;;;0.82;0.47;;;;;;;;;;5027780;28;20025;-53
2024/04/04 04:13:04;;;;;;;1.65;0.40;;;;;;;;;;5028787;28;20124;-51
2024/04/04 04:15:29;;;;;;;2.67;0.52;;;;;;;;;;5028948;28;20613;-50
2024/04/04 04:17:55;;;;;;;0.47;0.30;;;;;;;;;;5028804;28;20238;-57
2024/04/04 04:23:05;;;;;;;0.20;0.20;;;;;;;;;;5043974;28;20037;-50
2024/04/04 04:25:31;;;;;;;1.50;0.50;;;;;;;;;;5044386;28;20737;-53
2024/04/04 04:27:57;;;;;;;1.10;0.43;;;;;;;;;;5044577;28;20842;-54
2024/04/04 04:30:23;;;;;;;0.52;0.47;;;;;;;;;;5028199;28;20084;-54
2024/04/04 04:32:48;;;;;;;0.70;0.43;;;;;;;;;;5029676;28;20152;-52
2024/04/04 04:35:14;;;;;;;0.45;0.30;;;;;;;;;;5044004;28;20036;-54
2024/04/04 04:37:40;;;;;;;0.80;0.30;;;;;;;;;;5027732;28;20041;-52
2024/04/04 04:40:05;;;;;;;0.95;0.52;;;;;;;;;;5028992;28;20037;-54
2024/04/04 04:42:32;;;;;;;0.40;0.40;;;;;;;;;;5029040;28;20047;-50
2024/04/04 04:44:57;;;;;;;0.40;0.40;;;;;;;;;;5028638;28;20029;-51
2024/04/04 04:47:23;;;;;;;0.50;0.40;;;;;;;;;;5029191;28;20099;-53
2024/04/04 04:49:52;;;;;;;0.32;0.30;;;;;;;;;;5027737;28;20041;-57
2024/04/04 04:52:18;;;;;;;0.43;0.30;;;;;;;;;;5029237;28;20103;-55
2024/04/04 04:54:44;;;;;;;0.93;0.43;;;;;;;;;;5021869;28;20422;-49
2024/04/04 04:57:10;;;;;;;0.28;0.28;;;;;;;;;;5024212;28;20052;-53
2024/04/04 04:59:36;;;;;;;0.35;0.30;;;;;;;;;;5009267;28;20621;-50
2024/04/04 05:02:02;;;;;;;0.40;0.40;;;;;;;;;;5024353;28;20042;-50
2024/04/04 05:04:27;;;;;;;0.30;0.30;;;;;;;;;;5024131;28;20038;-51
2024/04/04 05:06:53;;;;;;;0.20;0.20;;;;;;;;;;5008684;28;20046;-52
2024/04/04 05:09:19;;;;;;;1.00;0.40;;;;;;;;;;5023675;28;20041;-50
2024/04/04 05:11:45;;;;;;;1.05;0.50;;;;;;;;;;5007367;28;20073;-50
2024/04/04 05:14:12;;;;;;;0.50;0.50;;;;;;;;;;5007142;28;20124;-54
2024/04/04 05:16:39;;;;;;;4.47;0.50;;;;;;;;;;5023300;28;20033;-55
2024/04/04 05:19:05;;;;;;;0.98;0.50;;;;;;;;;;5026376;28;20045;-53
2024/04/04 05:21:31;;;;;;;0.63;0.30;;;;;;;;;;5042787;28;20071;-56
2024/04/04 05:23:57;;;;;;;3.30;0.68;;;;;;;;;;5025444;28;20760;-54
2024/04/04 05:26:22;;;;;;;1.20;0.40;;;;;;;;;;5023893;28;20033;-54
2024/04/04 05:28:51;;;;;;;0.52;0.50;;;;;;;;;;5008837;28;20033;-51
2024/04/04 05:31:17;;;;;;;0.80;0.47;;;;;;;;;;5027778;28;20452;-55
2024/04/04 05:33:42;;;;;;;0.47;0.35;;;;;;;;;;5026564;28;20060;-52
2024/04/04 05:36:08;;;;;;;0.30;0.20;;;;;;;;;;5021506;28;20115;-53
2024/04/04 05:38:34;;;;;;;0.40;0.30;;;;;;;;;;5023235;28;20401;-55
2024/04/04 05:41:04;;;;;;;0.40;0.20;;;;;;;;;;5007906;28;20030;-56
2024/04/04 05:43:30;;;;;;;0.50;0.20;;;;;;;;;;5022917;28;20132;-52
2024/04/04 05:45:55;;;;;;;1.45;0.30;;;;;;;;;;5007117;28;20529;-55
2024/04/04 05:48:21;;;;;;;0.30;0.10;;;;;;;;;;5013426;28;20037;-54
2024/04/04 05:50:47;;;;;;;0.55;0.40;;;;;;;;;;5028161;28;20033;-54
2024/04/04 05:53:12;;;;;;;0.90;0.60;;;;;;;;;;5025962;28;20050;-55
2024/04/04 05:55:38;;;;;;;1.95;0.30;;;;;;;;;;5027681;28;20056;-53
2024/04/04 05:58:04;;;;;;;0.90;0.50;;;;;;;;;;5027420;28;20059;-55
2024/04/04 06:00:30;;;;;;;1.23;0.60;;;;;;;;;;5026466;28;20179;-55
2024/04/04 06:02:56;;;;;;;2.40;0.60;;;;;;;;;;5010317;28;20052;-52
2024/04/04 06:05:21;;;;;;;2.28;0.50;;;;;;;;;;5028008;28;20037;-50
2024/04/04 06:07:47;;;;;;;0.60;0.50;;;;;;;;;;5026943;28;20124;-53
2024/04/04 06:10:13;;;;;;;0.70;0.35;;;;;;;;;;5027523;28;20045;-53
2024/04/04 06:12:39;;;;;;;1.00;0.50;;;;;;;;;;5026292;28;20036;-53
2024/04/04 06:15:04;;;;;;;1.95;0.70;;;;;;;;;;5026474;28;20667;-56
2024/04/04 06:17:30;;;;;;;0.68;0.60;;;;;;;;;;5026600;28;20029;-53
2024/04/04 06:19:56;;;;;;;0.80;0.60;;;;;;;;;;5027685;28;20043;-53
2024/04/04 06:22:24;;;;;;;0.90;0.50;;;;;;;;;;5042660;28;20118;-55
2024/04/04 06:24:50;;;;;;;2.78;0.85;;;;;;;;;;5026891;28;20033;-51
2024/04/04 06:27:15;;;;;;;0.63;0.55;;;;;;;;;;5027302;28;20037;-56
2024/04/04 06:29:41;;;;;;;1.73;0.88;;;;;;;;;;5042090;28;20552;-56
2024/04/04 06:32:07;;;;;;;1.42;0.77;;;;;;;;;;5027552;28;20037;-56
2024/04/04 06:34:36;;;;;;;1.40;0.60;;;;;;;;;;5042469;28;20030;-58
2024/04/04 06:37:02;;;;;;;7.53;0.60;;;;;;;;;;5027217;28;20029;-55
2024/04/04 06:39:28;;;;;;;1.00;0.57;;;;;;;;;;5026913;28;20045;-54
2024/04/04 06:41:54;;;;;;;3.20;0.50;;;;;;;;;;5009498;28;20504;-55
2024/04/04 06:44:20;;;;;;;1.55;0.50;;;;;;;;;;5025652;28;20072;-49
2024/04/04 06:46:45;;;;;;;2.05;0.60;;;;;;;;;;5025636;28;20427;-55
2024/04/04 06:49:11;;;;;;;2.25;0.68;;;;;;;;;;5036231;28;20041;-57
2024/04/04 06:51:37;;;;;;;0.77;0.50;;;;;;;;;;5026454;28;20034;-58
2024/04/04 06:54:03;;;;;;;3.05;0.60;;;;;;;;;;5027056;28;20044;-56
2024/04/04 06:56:29;;;;;;;3.90;0.60;;;;;;;;;;5025616;28;20079;-52
2024/04/04 06:58:54;;;;;;;1.55;0.40;;;;;;;;;;5026168;28;20037;-57
2024/04/04 07:01:20;;;;;;;2.17;0.75;;;;;;;;;;5041966;28;20033;-57
2024/04/04 07:03:46;;;;;;;3.55;0.50;;;;;;;;;;5026660;28;20033;-55
2024/04/04 07:06:12;;;;;;;0.57;0.40;;;;;;;;;;5026829;28;20033;-55
2024/04/04 07:08:38;;;;;;;0.95;0.68;;;;;;;;;;5025025;28;20041;-52
2024/04/04 07:11:05;;;;;;;2.30;0.75;;;;;;;;;;5024628;28;20030;-56
2024/04/04 07:13:35;;;;;;;0.47;0.47;;;;;;;;;;5026802;28;20136;-51
2024/04/04 07:16:02;;;;;;;1.20;0.70;;;;;;;;;;5025368;28;20029;-51
2024/04/04 07:18:28;;;;;;;2.28;0.50;;;;;;;;;;5041665;28;20033;-55
2024/04/04 07:20:54;;;;;;;3.83;0.93;;;;;;;;;;5025947;28;20323;-54
2024/04/04 07:23:20;;;;;;;2.13;0.65;;;;;;;;;;5026430;28;20033;-54
2024/04/04 07:25:49;;;;;;;4.35;0.70;;;;;;;;;;5024846;28;20041;-53
2024/04/04 07:28:15;;;;;;;1.23;0.52;;;;;;;;;;5008481;28;20029;-55
2024/04/04 07:30:40;;;;;;;4.03;0.60;;;;;;;;;;5026082;28;20401;-56
2024/04/04 07:33:06;;;;;;;1.42;0.63;;;;;;;;;;5026512;28;20115;-51
2024/04/04 07:35:32;;;;;;;4.00;0.70;;;;;;;;;;5026357;28;20123;-53
2024/04/04 07:37:57;;;;;;;2.20;0.40;;;;;;;;;;5026322;28;20063;-54
2024/04/04 07:40:23;;;;;;;2.95;0.70;;;;;;;;;;5025783;28;20063;-56
2024/04/04 07:42:49;;;;;;;1.40;0.50;;;;;;;;;;5024884;28;20428;-55
2024/04/04 07:45:15;;;;;;;2.03;0.80;;;;;;;;;;5025040;28;20033;-56
2024/04/04 07:47:41;;;;;;;1.02;0.40;;;;;;;;;;5024803;28;20049;-56
2024/04/04 07:50:08;;;;;;;1.00;0.52;;;;;;;;;;5026203;28;20037;-54
2024/04/04 07:52:33;;;;;;;1.50;0.93;;;;;;;;;;5025476;28;20065;-55
2024/04/04 07:54:59;;;;;;;1.00;0.70;;;;;;;;;;5024550;28;20065;-54
2024/04/04 07:57:25;;;;;;;5.60;1.65;;;;;;;;;;5040722;28;20708;-55
2024/04/04 07:59:51;;;;;;;1.65;0.60;;;;;;;;;;5026082;28;20528;-54
2024/04/04 08:02:17;;;;;;;0.65;0.40;;;;;;;;;;5040581;28;20029;-54
2024/04/04 08:04:43;;;;;;;1.23;0.70;;;;;;;;;;5026305;28;20029;-54
2024/04/04 08:07:09;;;;;;;2.65;0.60;;;;;;;;;;5026226;28;20452;-54
2024/04/04 08:09:35;;;;;;;1.10;0.80;;;;;;;;;;5026120;28;20042;-57
2024/04/04 08:12:00;;;;;;;1.95;0.98;;;;;;;;;;5024237;28;20760;-57
2024/04/04 08:14:27;;;;;;;1.45;0.80;;;;;;;;;;5008174;28;20049;-56
2024/04/04 08:16:53;;;;;;;2.15;0.57;;;;;;;;;;5025804;28;20064;-56
2024/04/04 08:19:19;;;;;;;1.42;0.88;;;;;;;;;;5025874;28;20068;-54
2024/04/04 08:21:46;;;;;;;4.07;0.70;;;;;;;;;;5024919;28;20048;-55
2024/04/04 08:24:11;;;;;;;1.50;0.80;;;;;;;;;;5024021;28;20038;-56
2024/04/04 08:26:37;;;;;;;4.85;1.50;;;;;;;;;;5025801;28;20120;-56
2024/04/04 08:29:04;;;;;;;1.27;0.60;;;;;;;;;;5026451;28;20505;-50
2024/04/04 08:31:29;;;;;;;2.10;0.85;;;;;;;;;;5024904;28;20531;-55
2024/04/04 08:33:55;;;;;;;0.57;0.50;;;;;;;;;;5025214;28;20029;-58
2024/04/04 08:36:21;;;;;;;0.43;0.35;;;;;;;;;;5025243;28;20041;-53
2024/04/04 08:38:49;;;;;;;1.40;0.40;;;;;;;;;;5025061;28;20128;-56
2024/04/04 08:41:18;;;;;;;1.70;0.60;;;;;;;;;;5025847;28;20036;-56
2024/04/04 08:43:44;;;;;;;;;;;;;;;;;;5016991;28;20048;-54
2024/04/04 08:46:11;;;;;;;3.15;0.50;;;;;;;;;;5027656;28;19913;-55
2024/04/04 08:48:37;;;;;;;1.20;0.60;;;;;;;;;;5029368;28;20068;-52
2024/04/04 08:51:04;;;;;;;0.90;0.70;;;;;;;;;;5029659;28;20534;-56
2024/04/04 08:53:31;;;;;;;2.85;0.85;;;;;;;;;;5026651;28;20132;-52
2024/04/04 08:55:58;;;;;;;0.52;0.50;;;;;;;;;;5027335;28;20141;-56
2024/04/04 08:58:24;;;;;;;1.60;0.70;;;;;;;;;;5027208;28;20497;-58
2024/04/04 09:00:51;;;;;;;1.98;0.70;;;;;;;;;;5027115;28;20060;-55
2024/04/04 09:03:18;;;;;;;3.33;0.82;;;;;;;;;;5027924;28;20029;-54
2024/04/04 09:05:44;;;;;;;6.68;0.93;;;;;;;;;;5043991;28;20029;-54
2024/04/04 09:08:10;;;;;;;2.13;0.65;;;;;;;;;;5010448;28;20115;-55
2024/04/04 09:10:36;;;;;;;0.82;0.70;;;;;;;;;;5027339;28;20031;-57
2024/04/04 09:13:03;;;;;;;1.30;0.60;;;;;;;;;;5043586;28;20041;-56
2024/04/04 09:15:29;;;;;;;1.83;1.17;;;;;;;;;;5007444;28;20037;-56
2024/04/04 09:18:21;;;;;;;1.80;0.70;;;;;;;;;;5023797;28;20038;-53
2024/04/04 09:20:47;;;;;;;5.05;0.60;;;;;;;;;;5022308;28;20052;-51
2024/04/04 09:23:12;;;;;;;2.17;0.50;;;;;;;;;;5008311;28;20068;-54
2024/04/04 09:25:38;;;;;;;0.90;0.40;;;;;;;;;;5023662;28;20049;-53
2024/04/04 09:28:04;;;;;;;0.88;0.60;;;;;;;;;;5026789;28;20043;-52
2024/04/04 09:30:32;;;;;;;1.40;0.50;;;;;;;;;;5028035;28;20044;-55
2024/04/04 09:32:58;;;;;;;0.55;0.40;;;;;;;;;;5026398;28;20025;-56
2024/04/04 09:35:25;;;;;;;0.82;0.40;;;;;;;;;;5025875;28;20045;-53
2024/04/04 09:37:50;;;;;;;0.60;0.40;;;;;;;;;;5026337;28;20098;-53
2024/04/04 09:40:17;;;;;;;0.82;0.50;;;;;;;;;;5009781;28;20052;-57
2024/04/04 09:42:45;;;;;;;1.00;0.60;;;;;;;;;;5028000;28;20040;-54
2024/04/04 09:45:13;;;;;;;0.80;0.60;;;;;;;;;;5027431;28;20057;-56
2024/04/04 09:47:46;;;;;;;0.98;0.70;;;;;;;;;;5042903;28;20056;-54
2024/04/04 09:50:14;;;;;;;1.17;0.80;;;;;;;;;;5043411;28;20041;-56
2024/04/04 09:52:40;;;;;;;1.55;0.98;;;;;;;;;;5026843;28;20541;-52
2024/04/04 09:55:07;;;;;;;1.73;1.02;;;;;;;;;;5010679;28;20050;-54
2024/04/04 09:57:33;;;;;;;0.90;0.70;;;;;;;;;;5035019;28;20044;-54
2024/04/04 10:00:14;;;;;;;0.60;0.52;;;;;;;;;;5029150;28;20040;-56
2024/04/04 10:02:47;;;;;;;2.33;1.00;;;;;;;;;;5043050;28;20036;-55
2024/04/04 10:05:33;;;;;;;1.83;0.90;;;;;;;;;;5026069;28;20052;-53
2024/04/04 10:08:09;;;;;;;1.55;1.10;;;;;;;;;;5009401;28;20409;-54
2024/04/04 10:10:35;;;;;;;1.77;1.20;;;;;;;;;;5027702;28;20738;-55
2024/04/04 10:13:08;;;;;;;1.50;1.20;;;;;;;;;;5027721;28;20037;-55
2024/04/04 10:15:43;;;;;;;2.72;1.88;;;;;;;;;;5025246;28;20468;-61
2024/04/04 10:18:13;;;;;;;3.45;1.60;;;;;;;;;;5009446;28;20046;-52
2024/04/04 10:20:39;;;;;;;2.85;1.60;;;;;;;;;;5027284;28;20037;-57
2024/04/04 10:23:08;;;;;;;1.63;1.40;;;;;;;;;;5042053;28;20029;-53
2024/04/04 10:25:35;;;;;;;2.25;1.60;;;;;;;;;;5014828;28;20075;-52
2024/04/04 10:28:04;;;;;;;2.67;2.25;;;;;;;;;;5026087;28;20037;-53
2024/04/04 10:30:34;;;;;;;3.65;2.28;;;;;;;;;;5025453;28;20124;-54
2024/04/04 10:33:11;;;;;;;3.88;2.30;;;;;;;;;;5027132;28;20029;-57
2024/04/04 10:35:38;;;;;;;3.10;2.00;;;;;;;;;;5008698;28;20032;-55
2024/04/04 10:38:13;;;;;;;8.98;2.30;;;;;;;;;;5024572;28;20036;-55
2024/04/04 10:40:39;;;;;;;3.15;1.98;;;;;;;;;;5008829;28;20432;-56
2024/04/04 10:43:07;;;;;;;6.13;1.60;;;;;;;;;;5026784;28;20040;-54
2024/04/04 10:45:33;;;;;;;3.63;1.80;;;;;;;;;;5025444;28;20053;-54
2024/04/04 10:47:59;;;;;;;2.10;1.40;;;;;;;;;;5016453;28;20041;-54
2024/04/04 10:50:26;;;;;;;2.08;1.63;;;;;;;;;;5026811;28;20029;-56
2024/04/04 10:52:55;;;;;;;2.42;1.30;;;;;;;;;;5027066;28;20049;-55
2024/04/04 10:55:21;;;;;;;;;;;;;;;;;;5026296;28;20064;-53
2024/04/04 10:57:51;;;;;;;3.60;1.40;;;;;;;;;;5024676;28;20006;-54
2024/04/04 11:00:19;;;;;;;3.95;1.90;;;;;;;;;;5008702;28;20591;-55
2024/04/04 11:02:49;;;;;;;2.35;1.17;;;;;;;;;;5025067;28;20049;-58
2024/04/04 11:05:14;;;;;;;;;;;;;;;;;;5026612;28;20044;-54
2024/04/04 11:07:42;;;;;;;2.03;1.30;;;;;;;;;;5040999;28;19912;-56
2024/04/04 11:10:10;;;;;;;5.60;1.10;;;;;;;;;;5008394;28;20497;-54
2024/04/04 11:12:39;;;;;;;3.67;1.13;;;;;;;;;;5041072;28;20124;-56
2024/04/04 11:15:05;;;;;;;4.72;1.33;;;;;;;;;;5024557;28;20044;-58
2024/04/04 11:17:32;;;;;;;4.97;1.02;;;;;;;;;;5026181;28;20029;-57
2024/04/04 11:20:06;;;;;;;3.85;1.00;;;;;;;;;;5025521;28;20075;-58
2024/04/04 11:22:35;;;;;;;4.18;1.27;;;;;;;;;;5025821;28;20045;-53
2024/04/04 11:25:01;;;;;;;1.80;0.93;;;;;;;;;;5007531;28;20041;-55
2024/04/04 11:27:27;;;;;;;1.27;1.00;;;;;;;;;;5024436;28;20071;-56
2024/04/04 11:29:53;;;;;;;2.40;1.30;;;;;;;;;;5007653;28;20069;-55
2024/04/04 11:32:18;;;;;;;3.42;1.25;;;;;;;;;;5024679;28;20025;-52
2024/04/04 11:34:44;;;;;;;4.38;1.92;;;;;;;;;;5023888;28;20037;-55
2024/04/04 11:37:10;;;;;;;4.20;1.15;;;;;;;;;;5024307;28;20041;-54
2024/04/04 11:39:36;;;;;;;5.53;1.40;;;;;;;;;;5023884;28;20253;-52
2024/04/04 11:42:02;;;;;;;6.45;1.67;;;;;;;;;;5024770;28;20124;-52
2024/04/04 11:44:28;;;;;;;4.18;1.13;;;;;;;;;;5023718;28;20356;-57
2024/04/04 11:46:54;;;;;;;5.25;1.30;;;;;;;;;;5022912;28;20068;-56
2024/04/04 11:49:20;;;;;;;2.50;1.00;;;;;;;;;;5024782;28;20064;-58
2024/04/04 11:51:47;;;;;;;4.57;1.05;;;;;;;;;;5041278;28;20614;-53
2024/04/04 11:54:13;;;;;;;6.90;1.73;;;;;;;;;;5041424;28;20029;-53
2024/04/04 11:56:40;;;;;;;8.80;2.20;;;;;;;;;;5007939;28;20417;-56
2024/04/04 11:59:06;;;;;;;2.47;1.42;;;;;;;;;;5024150;28;20033;-57
2024/04/04 12:01:32;;;;;;;6.72;1.90;;;;;;;;;;5039657;28;20735;-52
2024/04/04 12:03:58;;;;;;;5.95;1.63;;;;;;;;;;5024050;28;20132;-58
2024/04/04 12:06:24;;;;;;;3.45;1.50;;;;;;;;;;5007589;28;20132;-56
2024/04/04 12:08:50;;;;;;;6.57;1.25;;;;;;;;;;5040746;28;20052;-55
2024/04/04 12:11:16;;;;;;;7.70;1.50;;;;;;;;;;5025165;28;20500;-55
2024/04/04 12:13:42;;;;;;;7.15;2.35;;;;;;;;;;5024261;28;20043;-54
2024/04/04 12:16:08;;;;;;;6.60;1.58;;;;;;;;;;5027425;28;20508;-54
2024/04/04 12:21:19;;;;;;;3.63;1.60;;;;;;;;;;5028836;28;20033;-54
2024/04/04 12:23:45;;;;;;;4.07;1.60;;;;;;;;;;5011052;28;20037;-57
2024/04/04 12:26:12;;;;;;;6.38;2.00;;;;;;;;;;4996112;28;20115;-53
2024/04/04 12:28:39;;;;;;;9.40;2.25;;;;;;;;;;5027972;28;20038;-55
2024/04/04 12:31:05;;;;;;;3.50;1.35;;;;;;;;;;4994689;28;20040;-51
2024/04/04 12:33:31;;;;;;;3.13;1.23;;;;;;;;;;5044716;28;20124;-52
2024/04/04 12:35:57;;;;;;;4.90;1.73;;;;;;;;;;5028132;28;20121;-57
2024/04/04 12:38:23;;;;;;;6.00;2.00;;;;;;;;;;5029022;28;20485;-54
2024/04/04 12:40:49;;;;;;;7.05;2.67;;;;;;;;;;5028248;28;20041;-54
2024/04/04 12:43:15;;;;;;;5.97;1.77;;;;;;;;;;5028944;28;20056;-55
2024/04/04 12:45:40;;;;;;;4.93;2.03;;;;;;;;;;5027480;28;20168;-55
2024/04/04 12:48:06;;;;;;;8.80;2.60;;;;;;;;;;5029039;28;20117;-54
2024/04/04 12:50:32;;;;;;;9.57;1.80;;;;;;;;;;5029155;28;20036;-55
2024/04/04 12:52:57;;;;;;;3.42;1.77;;;;;;;;;;5031501;28;20042;-56
2024/04/04 12:55:23;;;;;;;5.93;1.92;;;;;;;;;;5026859;28;20045;-52
2024/04/04 12:57:49;;;;;;;3.33;1.73;;;;;;;;;;5027154;28;20532;-56
2024/04/04 13:00:15;;;;;;;2.97;1.45;;;;;;;;;;5027792;28;20115;-57
2024/04/04 13:02:41;;;;;;;2.30;1.27;;;;;;;;;;5028316;28;20144;-54
2024/04/04 13:05:07;;;;;;;6.18;1.45;;;;;;;;;;5028924;28;20211;-54
2024/04/04 13:07:33;;;;;;;3.53;1.20;;;;;;;;;;5028541;28;20037;-56
2024/04/04 13:10:00;;;;;;;4.90;1.08;;;;;;;;;;5028651;28;20029;-57
2024/04/04 13:12:25;;;;;;;1.33;1.00;;;;;;;;;;5042201;28;20053;-50
2024/04/04 13:14:51;;;;;;;3.90;1.25;;;;;;;;;;5043346;28;20029;-54
2024/04/04 13:17:17;;;;;;;5.10;1.40;;;;;;;;;;5028192;28;20048;-55
2024/04/04 13:19:43;;;;;;;8.10;1.30;;;;;;;;;;5026946;28;20032;-51
2024/04/04 13:22:08;;;;;;;2.28;1.17;;;;;;;;;;5027905;28;20037;-55
2024/04/04 13:24:36;;;;;;;2.95;1.30;;;;;;;;;;5027004;28;20136;-52
2024/04/04 13:27:02;;;;;;;4.18;1.10;;;;;;;;;;5026616;28;20052;-58
2024/04/04 13:29:27;;;;;;;3.50;1.10;;;;;;;;;;5009811;28;20045;-58
2024/04/04 13:31:53;;;;;;;3.58;1.50;;;;;;;;;;5027850;28;20579;-56
2024/04/04 13:34:19;;;;;;;4.22;1.52;;;;;;;;;;5027315;28;20044;-57
2024/04/04 13:36:45;;;;;;;4.68;1.38;;;;;;;;;;5027642;28;20036;-53
2024/04/04 13:39:16;;;;;;;3.28;1.00;;;;;;;;;;5027672;28;20108;-57
2024/04/04 13:41:44;;;;;;;4.80;1.00;;;;;;;;;;5026450;28;20065;-58
2024/04/04 13:44:11;;;;;;;1.63;0.97;;;;;;;;;;5026071;28;20037;-53
2024/04/04 13:46:40;;;;;;;5.32;1.48;;;;;;;;;;5026180;28;20044;-56
2024/04/04 13:49:07;;;;;;;1.52;0.90;;;;;;;;;;5027289;28;20042;-57
2024/04/04 13:51:33;;;;;;;2.25;1.20;;;;;;;;;;5025442;28;20033;-55
2024/04/04 13:54:02;;;;;;;3.90;1.27;;;;;;;;;;5009438;28;20144;-66
2024/04/04 13:56:28;;;;;;;10.65;1.30;;;;;;;;;;5026544;28;20099;-58
2024/04/04 13:58:54;;;;;;;3.40;0.90;;;;;;;;;;5025611;28;20041;-60
2024/04/04 14:01:20;;;;;;;4.60;1.60;;;;;;;;;;5025781;28;20076;-57
2024/04/04 14:03:46;;;;;;;3.30;1.50;;;;;;;;;;5027809;28;20087;-55
2024/04/04 14:06:11;;;;;;;6.45;1.30;;;;;;;;;;5026064;28;20045;-59
2024/04/04 14:08:37;;;;;;;3.00;0.90;;;;;;;;;;5027275;28;20565;-59
2024/04/04 14:11:03;;;;;;;8.32;1.73;;;;;;;;;;5027392;28;20060;-60
2024/04/04 14:13:29;;;;;;;3.97;1.40;;;;;;;;;;5026817;28;20030;-58
2024/04/04 14:15:54;;;;;;;6.75;1.48;;;;;;;;;;5027041;28;20375;-57
2024/04/04 14:18:20;;;;;;;1.75;0.98;;;;;;;;;;5025737;28;20144;-59
2024/04/04 14:20:48;;;;;;;2.25;1.13;;;;;;;;;;5026761;28;20505;-60
2024/04/04 14:23:13;;;;;;;5.35;1.35;;;;;;;;;;5026447;28;20135;-57
2024/04/04 14:25:39;;;;;;;2.17;1.30;;;;;;;;;;5026713;28;20124;-57
2024/04/04 14:28:05;;;;;;;4.55;1.80;;;;;;;;;;5025684;28;20436;-55
2024/04/04 14:30:30;;;;;;;6.00;1.70;;;;;;;;;;5042732;28;20456;-56
2024/04/04 14:32:57;;;;;;;7.38;1.20;;;;;;;;;;5026592;28;20743;-55
2024/04/04 14:35:23;;;;;;;5.75;1.27;;;;;;;;;;5041957;28;20033;-60
2024/04/04 14:37:50;;;;;;;5.45;1.40;;;;;;;;;;5041807;28;20125;-60
2024/04/04 14:40:16;;;;;;;1.73;1.05;;;;;;;;;;5027113;28;20087;-57
2024/04/04 14:42:42;;;;;;;2.42;1.30;;;;;;;;;;5025565;28;20037;-57
2024/04/04 14:45:11;;;;;;;1.98;1.30;;;;;;;;;;5025838;28;20539;-55